sensor_id;sensor_type;location;lat;lon;timestamp;noise_LAeq;noise_LA_min;noise_LA_max;noise_LA01;noise_LA95
67308;Laerm;57662;51.436;5.978;2024-02-04T00:00:09;40.53;37.77;43.38;;
67308;Laerm;57662;51.436;5.978;2024-02-04T00:00:21;40.03;37.90;42.85;;
67308;Laerm;57662;51.436;5.978;2024-02-04T00:00:31;41.91;38.34;45.07;;
67308;Laerm;57662;51.436;5.978;2024-02-04T00:00:42;42.54;39.90;44.69;;
67308;Laerm;57662;51.436;5.978;2024-02-04T00:00:53;43.12;39.77;50.03;;
67308;Laerm;57662;51.436;5.978;2024-02-04T00:01:04;41.45;39.01;45.02;;
67308;Laerm;57662;51.436;5.978;2024-02-04T00:01:15;40.81;38.09;44.11;;
67308;Laerm;57662;51.436;5.978;2024-02-04T00:01:25;41.26;38.50;44.70;;
67308;Laerm;57662;51.436;5.978;2024-02-04T00:01:37;41.89;38.23;50.10;;
67308;Laerm;57662;51.436;5.978;2024-02-04T00:01:47;42.64;38.64;53.22;;
67308;Laerm;57662;51.436;5.978;2024-02-04T00:01:58;42.92;39.47;49.31;;
67308;Laerm;57662;51.436;5.978;2024-02-04T00:02:09;40.19;37.53;44.64;;
67308;Laerm;57662;51.436;5.978;2024-02-04T00:02:27;39.10;37.30;42.29;;
67308;Laerm;57662;51.436;5.978;2024-02-04T00:02:38;40.89;37.65;45.11;;
67308;Laerm;57662;51.436;5.978;2024-02-04T00:02:50;41.84;38.07;43.43;;
67308;Laerm;57662;51.436;5.978;2024-02-04T00:03:00;44.46;39.26;48.85;;
67308;Laerm;57662;51.436;5.978;2024-02-04T00:03:11;40.14;37.24;44.42;;
67308;Laerm;57662;51.436;5.978;2024-02-04T00:03:22;39.03;37.30;41.27;;
67308;Laerm;57662;51.436;5.978;2024-02-04T00:03:34;38.85;37.23;41.90;;
67308;Laerm;57662;51.436;5.978;2024-02-04T00:03:44;41.23;37.52;43.65;;
67308;Laerm;57662;51.436;5.978;2024-02-04T00:03:55;41.85;37.82;43.60;;
67308;Laerm;57662;51.436;5.978;2024-02-04T00:04:06;41.59;38.65;43.76;;
67308;Laerm;57662;51.436;5.978;2024-02-04T00:04:17;39.20;37.36;42.98;;
67308;Laerm;57662;51.436;5.978;2024-02-04T00:04:28;39.04;37.60;41.21;;
67308;Laerm;57662;51.436;5.978;2024-02-04T00:04:40;38.95;36.97;45.42;;
67308;Laerm;57662;51.436;5.978;2024-02-04T00:04:51;42.13;37.74;44.49;;
67308;Laerm;57662;51.436;5.978;2024-02-04T00:05:03;41.84;38.82;43.51;;
67308;Laerm;57662;51.436;5.978;2024-02-04T00:05:13;41.09;37.57;43.23;;
67308;Laerm;57662;51.436;5.978;2024-02-04T00:05:25;38.98;37.49;40.39;;
67308;Laerm;57662;51.436;5.978;2024-02-04T00:05:35;39.21;37.68;44.56;;
67308;Laerm;57662;51.436;5.978;2024-02-04T00:05:47;40.04;37.52;43.49;;
67308;Laerm;57662;51.436;5.978;2024-02-04T00:05:58;42.13;38.76;43.68;;
67308;Laerm;57662;51.436;5.978;2024-02-04T00:06:09;41.55;38.11;43.91;;
67308;Laerm;57662;51.436;5.978;2024-02-04T00:06:20;41.26;38.08;43.56;;
67308;Laerm;57662;51.436;5.978;2024-02-04T00:06:31;40.21;38.04;42.97;;
67308;Laerm;57662;51.436;5.978;2024-02-04T00:06:42;40.36;37.70;44.96;;
67308;Laerm;57662;51.436;5.978;2024-02-04T00:06:53;40.41;37.66;43.80;;
67308;Laerm;57662;51.436;5.978;2024-02-04T00:07:04;41.72;38.32;43.73;;
67308;Laerm;57662;51.436;5.978;2024-02-04T00:07:16;41.50;38.36;43.64;;
67308;Laerm;57662;51.436;5.978;2024-02-04T00:07:26;39.74;37.06;43.57;;
67308;Laerm;57662;51.436;5.978;2024-02-04T00:07:39;40.14;37.57;46.54;;
67308;Laerm;57662;51.436;5.978;2024-02-04T00:08:32;40.65;37.35;44.14;;
67308;Laerm;57662;51.436;5.978;2024-02-04T00:08:43;38.99;36.97;41.57;;
67308;Laerm;57662;51.436;5.978;2024-02-04T00:08:54;40.82;37.92;43.48;;
67308;Laerm;57662;51.436;5.978;2024-02-04T00:09:04;41.95;38.95;44.00;;
67308;Laerm;57662;51.436;5.978;2024-02-04T00:09:17;41.07;38.28;43.57;;
67308;Laerm;57662;51.436;5.978;2024-02-04T00:09:29;39.32;37.99;42.01;;
67308;Laerm;57662;51.436;5.978;2024-02-04T00:09:40;38.88;37.10;40.98;;
67308;Laerm;57662;51.436;5.978;2024-02-04T00:09:51;40.41;37.41;44.96;;
67308;Laerm;57662;51.436;5.978;2024-02-04T00:10:02;41.71;37.92;44.61;;
67308;Laerm;57662;51.436;5.978;2024-02-04T00:10:14;41.14;37.70;42.88;;
67308;Laerm;57662;51.436;5.978;2024-02-04T00:10:27;38.86;37.24;42.92;;
67308;Laerm;57662;51.436;5.978;2024-02-04T00:10:40;38.53;37.11;41.65;;
67308;Laerm;57662;51.436;5.978;2024-02-04T00:10:52;40.17;37.17;42.73;;
67308;Laerm;57662;51.436;5.978;2024-02-04T00:11:03;41.29;37.34;43.29;;
67308;Laerm;57662;51.436;5.978;2024-02-04T00:11:16;40.43;36.96;43.09;;
67308;Laerm;57662;51.436;5.978;2024-02-04T00:11:28;38.54;37.18;40.69;;
67308;Laerm;57662;51.436;5.978;2024-02-04T00:11:39;38.57;36.98;41.79;;
67308;Laerm;57662;51.436;5.978;2024-02-04T00:11:50;40.46;37.55;42.91;;
67308;Laerm;57662;51.436;5.978;2024-02-04T00:12:01;41.10;37.88;44.07;;
67308;Laerm;57662;51.436;5.978;2024-02-04T00:12:14;41.27;38.53;42.93;;
67308;Laerm;57662;51.436;5.978;2024-02-04T00:12:24;38.80;37.29;41.65;;
67308;Laerm;57662;51.436;5.978;2024-02-04T00:12:35;38.81;37.31;41.44;;
67308;Laerm;57662;51.436;5.978;2024-02-04T00:13:41;40.30;37.21;43.79;;
67308;Laerm;57662;51.436;5.978;2024-02-04T00:13:53;38.88;37.28;41.82;;
67308;Laerm;57662;51.436;5.978;2024-02-04T00:14:04;41.30;37.57;43.52;;
67308;Laerm;57662;51.436;5.978;2024-02-04T00:14:14;41.38;38.25;43.02;;
67308;Laerm;57662;51.436;5.978;2024-02-04T00:14:25;41.33;38.40;42.84;;
67308;Laerm;57662;51.436;5.978;2024-02-04T00:14:35;39.18;36.94;42.29;;
67308;Laerm;57662;51.436;5.978;2024-02-04T00:14:47;39.30;37.47;53.07;;
67308;Laerm;57662;51.436;5.978;2024-02-04T00:15:02;39.41;37.37;50.01;;
67308;Laerm;57662;51.436;5.978;2024-02-04T00:15:14;41.47;39.01;43.04;;
67308;Laerm;57662;51.436;5.978;2024-02-04T00:15:25;41.13;38.30;43.66;;
67308;Laerm;57662;51.436;5.978;2024-02-04T00:15:38;40.45;37.80;44.50;;
67308;Laerm;57662;51.436;5.978;2024-02-04T00:15:49;38.78;37.39;42.50;;
67308;Laerm;57662;51.436;5.978;2024-02-04T00:16:02;41.30;37.67;63.02;;
67308;Laerm;57662;51.436;5.978;2024-02-04T00:16:14;43.93;37.46;65.75;;
67308;Laerm;57662;51.436;5.978;2024-02-04T00:16:25;41.81;39.63;51.80;;
67308;Laerm;57662;51.436;5.978;2024-02-04T00:16:36;41.31;38.49;44.11;;
67308;Laerm;57662;51.436;5.978;2024-02-04T00:16:47;40.19;37.60;45.29;;
67308;Laerm;57662;51.436;5.978;2024-02-04T00:16:58;38.68;37.26;41.63;;
67308;Laerm;57662;51.436;5.978;2024-02-04T00:17:09;38.59;37.00;44.79;;
67308;Laerm;57662;51.436;5.978;2024-02-04T00:17:20;41.34;37.00;48.02;;
67308;Laerm;57662;51.436;5.978;2024-02-04T00:17:31;41.24;38.07;44.54;;
67308;Laerm;57662;51.436;5.978;2024-02-04T00:18:40;40.45;37.00;56.18;;
67308;Laerm;57662;51.436;5.978;2024-02-04T00:18:51;41.38;38.81;45.83;;
67308;Laerm;57662;51.436;5.978;2024-02-04T00:19:01;39.58;37.42;43.30;;
67308;Laerm;57662;51.436;5.978;2024-02-04T00:19:14;39.04;37.41;46.79;;
67308;Laerm;57662;51.436;5.978;2024-02-04T00:19:24;39.16;37.38;45.09;;
67308;Laerm;57662;51.436;5.978;2024-02-04T00:19:36;40.63;37.38;46.88;;
67308;Laerm;57662;51.436;5.978;2024-02-04T00:19:47;41.02;38.01;43.21;;
67308;Laerm;57662;51.436;5.978;2024-02-04T00:20:01;41.12;38.17;43.13;;
67308;Laerm;57662;51.436;5.978;2024-02-04T00:20:12;39.85;37.54;43.15;;
67308;Laerm;57662;51.436;5.978;2024-02-04T00:20:25;39.28;37.56;43.87;;
67308;Laerm;57662;51.436;5.978;2024-02-04T00:20:39;38.85;37.54;41.55;;
67308;Laerm;57662;51.436;5.978;2024-02-04T00:20:50;41.27;37.69;43.43;;
67308;Laerm;57662;51.436;5.978;2024-02-04T00:21:03;41.29;38.21;43.21;;
67308;Laerm;57662;51.436;5.978;2024-02-04T00:21:14;40.84;38.02;43.06;;
67308;Laerm;57662;51.436;5.978;2024-02-04T00:21:28;38.77;37.34;43.56;;
67308;Laerm;57662;51.436;5.978;2024-02-04T00:21:39;38.43;37.37;39.75;;
67308;Laerm;57662;51.436;5.978;2024-02-04T00:21:51;39.65;37.48;49.85;;
67308;Laerm;57662;51.436;5.978;2024-02-04T00:22:04;41.31;37.84;48.31;;
67308;Laerm;57662;51.436;5.978;2024-02-04T00:22:17;41.18;37.86;45.06;;
67308;Laerm;57662;51.436;5.978;2024-02-04T00:22:31;40.40;37.40;46.50;;
67308;Laerm;57662;51.436;5.978;2024-02-04T00:22:42;38.61;37.02;40.65;;
67308;Laerm;57662;51.436;5.978;2024-02-04T00:23:42;40.34;37.34;43.35;;
67308;Laerm;57662;51.436;5.978;2024-02-04T00:23:53;38.48;37.31;40.67;;
67308;Laerm;57662;51.436;5.978;2024-02-04T00:24:04;38.59;37.21;41.40;;
67308;Laerm;57662;51.436;5.978;2024-02-04T00:24:15;39.85;36.96;42.28;;
67308;Laerm;57662;51.436;5.978;2024-02-04T00:24:25;41.32;38.74;44.72;;
67308;Laerm;57662;51.436;5.978;2024-02-04T00:24:35;41.33;39.60;45.20;;
67308;Laerm;57662;51.436;5.978;2024-02-04T00:24:47;40.71;37.28;44.00;;
67308;Laerm;57662;51.436;5.978;2024-02-04T00:24:59;38.72;37.01;41.55;;
67308;Laerm;57662;51.436;5.978;2024-02-04T00:25:15;39.03;37.47;48.95;;
67308;Laerm;57662;51.436;5.978;2024-02-04T00:25:30;40.62;37.62;42.99;;
67308;Laerm;57662;51.436;5.978;2024-02-04T00:25:41;41.22;38.80;46.01;;
67308;Laerm;57662;51.436;5.978;2024-02-04T00:25:52;41.02;38.34;42.74;;
67308;Laerm;57662;51.436;5.978;2024-02-04T00:26:03;38.98;37.24;42.62;;
67308;Laerm;57662;51.436;5.978;2024-02-04T00:26:14;38.35;37.03;42.41;;
67308;Laerm;57662;51.436;5.978;2024-02-04T00:26:25;38.48;37.00;40.59;;
67308;Laerm;57662;51.436;5.978;2024-02-04T00:26:38;40.51;37.28;42.87;;
67308;Laerm;57662;51.436;5.978;2024-02-04T00:26:50;46.91;38.67;65.80;;
67308;Laerm;57662;51.436;5.978;2024-02-04T00:27:04;42.17;39.28;48.91;;
67308;Laerm;57662;51.436;5.978;2024-02-04T00:27:16;40.17;37.45;49.61;;
67308;Laerm;57662;51.436;5.978;2024-02-04T00:27:27;39.30;37.19;48.08;;
67308;Laerm;57662;51.436;5.978;2024-02-04T00:27:40;39.56;37.30;49.33;;
67308;Laerm;57662;51.436;5.978;2024-02-04T00:28:42;42.95;37.58;54.26;;
67308;Laerm;57662;51.436;5.978;2024-02-04T00:28:53;40.24;37.27;50.29;;
67308;Laerm;57662;51.436;5.978;2024-02-04T00:29:03;38.66;37.17;42.83;;
67308;Laerm;57662;51.436;5.978;2024-02-04T00:29:14;42.17;37.33;44.25;;
67308;Laerm;57662;51.436;5.978;2024-02-04T00:29:24;42.93;38.89;45.98;;
67308;Laerm;57662;51.436;5.978;2024-02-04T00:29:35;42.87;38.17;44.70;;
67308;Laerm;57662;51.436;5.978;2024-02-04T00:29:46;42.70;38.16;44.16;;
67308;Laerm;57662;51.436;5.978;2024-02-04T00:29:57;42.98;38.73;46.01;;
67308;Laerm;57662;51.436;5.978;2024-02-04T00:30:12;42.47;37.69;44.42;;
67308;Laerm;57662;51.436;5.978;2024-02-04T00:30:23;42.67;38.53;45.43;;
67308;Laerm;57662;51.436;5.978;2024-02-04T00:30:35;42.64;38.27;46.58;;
67308;Laerm;57662;51.436;5.978;2024-02-04T00:30:47;42.60;38.82;44.38;;
67308;Laerm;57662;51.436;5.978;2024-02-04T00:31:02;40.76;37.61;44.88;;
67308;Laerm;57662;51.436;5.978;2024-02-04T00:31:13;39.45;37.57;42.05;;
67308;Laerm;57662;51.436;5.978;2024-02-04T00:31:25;39.22;37.26;43.31;;
67308;Laerm;57662;51.436;5.978;2024-02-04T00:31:37;42.21;37.72;44.74;;
67308;Laerm;57662;51.436;5.978;2024-02-04T00:31:49;42.88;38.54;44.28;;
67308;Laerm;57662;51.436;5.978;2024-02-04T00:32:00;42.97;38.98;44.58;;
67308;Laerm;57662;51.436;5.978;2024-02-04T00:32:10;43.24;38.73;47.65;;
67308;Laerm;57662;51.436;5.978;2024-02-04T00:32:21;42.99;38.07;44.78;;
67308;Laerm;57662;51.436;5.978;2024-02-04T00:32:31;43.08;38.80;49.72;;
67308;Laerm;57662;51.436;5.978;2024-02-04T00:32:43;43.14;38.26;48.95;;
67308;Laerm;57662;51.436;5.978;2024-02-04T00:33:57;41.80;37.37;46.70;;
67308;Laerm;57662;51.436;5.978;2024-02-04T00:34:09;40.21;37.45;45.06;;
67308;Laerm;57662;51.436;5.978;2024-02-04T00:34:21;42.71;37.58;45.66;;
67308;Laerm;57662;51.436;5.978;2024-02-04T00:34:34;42.64;38.00;44.64;;
67308;Laerm;57662;51.436;5.978;2024-02-04T00:34:46;42.80;38.61;45.55;;
67308;Laerm;57662;51.436;5.978;2024-02-04T00:34:59;42.80;39.27;44.55;;
67308;Laerm;57662;51.436;5.978;2024-02-04T00:35:11;43.18;38.31;52.98;;
67308;Laerm;57662;51.436;5.978;2024-02-04T00:35:24;43.99;39.91;53.50;;
67308;Laerm;57662;51.436;5.978;2024-02-04T00:35:37;44.42;37.86;53.46;;
67308;Laerm;57662;51.436;5.978;2024-02-04T00:35:48;43.43;40.09;48.32;;
67308;Laerm;57662;51.436;5.978;2024-02-04T00:36:02;42.12;37.49;48.52;;
67308;Laerm;57662;51.436;5.978;2024-02-04T00:36:14;38.99;37.36;44.01;;
67308;Laerm;57662;51.436;5.978;2024-02-04T00:36:26;39.51;37.13;46.40;;
67308;Laerm;57662;51.436;5.978;2024-02-04T00:36:38;41.55;37.47;50.09;;
67308;Laerm;57662;51.436;5.978;2024-02-04T00:36:50;43.29;37.83;50.32;;
67308;Laerm;57662;51.436;5.978;2024-02-04T00:37:00;42.03;37.95;46.85;;
67308;Laerm;57662;51.436;5.978;2024-02-04T00:37:12;43.31;38.68;48.00;;
67308;Laerm;57662;51.436;5.978;2024-02-04T00:37:23;42.96;37.98;45.44;;
67308;Laerm;57662;51.436;5.978;2024-02-04T00:37:34;43.08;38.51;46.96;;
67308;Laerm;57662;51.436;5.978;2024-02-04T00:38:42;41.85;37.41;47.99;;
67308;Laerm;57662;51.436;5.978;2024-02-04T00:38:54;40.65;37.42;49.34;;
67308;Laerm;57662;51.436;5.978;2024-02-04T00:39:05;42.93;38.20;49.57;;
67308;Laerm;57662;51.436;5.978;2024-02-04T00:39:20;43.05;38.40;47.09;;
67308;Laerm;57662;51.436;5.978;2024-02-04T00:39:31;44.35;38.78;51.19;;
67308;Laerm;57662;51.436;5.978;2024-02-04T00:39:44;43.15;40.53;45.86;;
67308;Laerm;57662;51.436;5.978;2024-02-04T00:39:55;42.99;37.82;48.90;;
67308;Laerm;57662;51.436;5.978;2024-02-04T00:40:08;44.60;39.39;53.74;;
67308;Laerm;57662;51.436;5.978;2024-02-04T00:40:23;43.55;40.44;48.58;;
67308;Laerm;57662;51.436;5.978;2024-02-04T00:40:35;43.86;38.56;50.61;;
67308;Laerm;57662;51.436;5.978;2024-02-04T00:40:47;42.49;38.06;48.66;;
67308;Laerm;57662;51.436;5.978;2024-02-04T00:40:58;40.64;37.39;49.80;;
67308;Laerm;57662;51.436;5.978;2024-02-04T00:41:10;39.62;37.73;49.31;;
67308;Laerm;57662;51.436;5.978;2024-02-04T00:41:25;41.09;37.67;44.19;;
67308;Laerm;57662;51.436;5.978;2024-02-04T00:41:38;43.28;38.41;50.14;;
67308;Laerm;57662;51.436;5.978;2024-02-04T00:41:50;43.28;38.12;53.57;;
67308;Laerm;57662;51.436;5.978;2024-02-04T00:42:00;43.34;38.92;50.01;;
67308;Laerm;57662;51.436;5.978;2024-02-04T00:42:13;42.85;38.19;49.72;;
67308;Laerm;57662;51.436;5.978;2024-02-04T00:42:27;42.52;38.24;46.79;;
67308;Laerm;57662;51.436;5.978;2024-02-04T00:42:40;42.13;37.64;46.86;;
67308;Laerm;57662;51.436;5.978;2024-02-04T00:43:48;40.78;36.88;51.27;;
67308;Laerm;57662;51.436;5.978;2024-02-04T00:43:59;42.51;38.48;44.39;;
67308;Laerm;57662;51.436;5.978;2024-02-04T00:44:10;40.20;37.50;48.51;;
67308;Laerm;57662;51.436;5.978;2024-02-04T00:44:21;39.65;37.56;48.60;;
67308;Laerm;57662;51.436;5.978;2024-02-04T00:44:32;40.54;37.83;44.68;;
67308;Laerm;57662;51.436;5.978;2024-02-04T00:44:45;42.40;37.29;44.76;;
67308;Laerm;57662;51.436;5.978;2024-02-04T00:44:56;42.85;38.73;45.49;;
67308;Laerm;57662;51.436;5.978;2024-02-04T00:45:07;42.43;38.39;45.56;;
67308;Laerm;57662;51.436;5.978;2024-02-04T00:45:19;40.19;37.58;43.93;;
67308;Laerm;57662;51.436;5.978;2024-02-04T00:45:34;38.76;37.04;41.44;;
67308;Laerm;57662;51.436;5.978;2024-02-04T00:45:47;40.27;37.44;49.35;;
67308;Laerm;57662;51.436;5.978;2024-02-04T00:45:59;41.87;37.55;48.02;;
67308;Laerm;57662;51.436;5.978;2024-02-04T00:46:14;43.09;38.37;49.22;;
67308;Laerm;57662;51.436;5.978;2024-02-04T00:46:26;42.68;38.03;45.31;;
67308;Laerm;57662;51.436;5.978;2024-02-04T00:46:37;42.74;38.87;47.33;;
67308;Laerm;57662;51.436;5.978;2024-02-04T00:46:48;41.96;37.71;47.52;;
67308;Laerm;57662;51.436;5.978;2024-02-04T00:47:01;42.16;38.25;43.86;;
67308;Laerm;57662;51.436;5.978;2024-02-04T00:47:17;42.70;39.26;46.49;;
67308;Laerm;57662;51.436;5.978;2024-02-04T00:47:28;42.40;38.05;47.35;;
67308;Laerm;57662;51.436;5.978;2024-02-04T00:47:39;39.47;37.00;45.06;;
67308;Laerm;57662;51.436;5.978;2024-02-04T00:48:49;41.87;37.33;51.58;;
67308;Laerm;57662;51.436;5.978;2024-02-04T00:49:02;42.50;38.07;49.62;;
67308;Laerm;57662;51.436;5.978;2024-02-04T00:49:12;41.44;37.93;46.93;;
67308;Laerm;57662;51.436;5.978;2024-02-04T00:49:25;45.14;37.75;66.69;;
67308;Laerm;57662;51.436;5.978;2024-02-04T00:49:40;42.29;37.57;49.78;;
67308;Laerm;57662;51.436;5.978;2024-02-04T00:49:55;41.49;37.30;49.01;;
67308;Laerm;57662;51.436;5.978;2024-02-04T00:50:07;40.62;37.65;48.84;;
67308;Laerm;57662;51.436;5.978;2024-02-04T00:50:24;42.51;37.81;50.81;;
67308;Laerm;57662;51.436;5.978;2024-02-04T00:50:35;42.66;40.07;44.50;;
67308;Laerm;57662;51.436;5.978;2024-02-04T00:50:46;42.08;37.88;44.17;;
67308;Laerm;57662;51.436;5.978;2024-02-04T00:50:59;42.01;37.74;44.13;;
67308;Laerm;57662;51.436;5.978;2024-02-04T00:51:13;42.12;38.19;43.94;;
67308;Laerm;57662;51.436;5.978;2024-02-04T00:51:27;43.15;38.40;51.87;;
67308;Laerm;57662;51.436;5.978;2024-02-04T00:51:37;43.23;40.02;49.51;;
67308;Laerm;57662;51.436;5.978;2024-02-04T00:51:48;40.83;37.26;47.26;;
67308;Laerm;57662;51.436;5.978;2024-02-04T00:52:01;38.74;37.03;42.28;;
67308;Laerm;57662;51.436;5.978;2024-02-04T00:52:16;38.93;36.96;44.23;;
67308;Laerm;57662;51.436;5.978;2024-02-04T00:52:27;40.82;37.38;45.92;;
67308;Laerm;57662;51.436;5.978;2024-02-04T00:52:40;41.77;37.58;43.87;;
67308;Laerm;57662;51.436;5.978;2024-02-04T00:53:54;42.29;37.38;58.82;;
67308;Laerm;57662;51.436;5.978;2024-02-04T00:54:10;38.89;37.12;46.43;;
67308;Laerm;57662;51.436;5.978;2024-02-04T00:54:21;40.78;37.26;45.21;;
67308;Laerm;57662;51.436;5.978;2024-02-04T00:54:32;40.93;37.14;44.37;;
67308;Laerm;57662;51.436;5.978;2024-02-04T00:54:44;42.27;37.77;47.06;;
67308;Laerm;57662;51.436;5.978;2024-02-04T00:54:55;42.53;38.90;46.53;;
67308;Laerm;57662;51.436;5.978;2024-02-04T00:55:06;42.48;37.95;44.43;;
67308;Laerm;57662;51.436;5.978;2024-02-04T00:55:24;42.23;36.91;47.90;;
67308;Laerm;57662;51.436;5.978;2024-02-04T00:55:35;43.18;37.79;49.12;;
67308;Laerm;57662;51.436;5.978;2024-02-04T00:55:46;42.41;38.92;44.71;;
67308;Laerm;57662;51.436;5.978;2024-02-04T00:55:58;42.29;38.60;44.80;;
67308;Laerm;57662;51.436;5.978;2024-02-04T00:56:11;41.37;37.74;51.25;;
67308;Laerm;57662;51.436;5.978;2024-02-04T00:56:26;38.65;36.75;40.47;;
67308;Laerm;57662;51.436;5.978;2024-02-04T00:56:39;39.10;37.44;42.96;;
67308;Laerm;57662;51.436;5.978;2024-02-04T00:56:49;41.87;38.14;43.89;;
67308;Laerm;57662;51.436;5.978;2024-02-04T00:57:00;42.06;38.30;43.67;;
67308;Laerm;57662;51.436;5.978;2024-02-04T00:57:13;42.28;38.11;45.35;;
67308;Laerm;57662;51.436;5.978;2024-02-04T00:57:28;41.63;37.82;43.73;;
67308;Laerm;57662;51.436;5.978;2024-02-04T00:57:39;42.33;38.15;48.75;;
67308;Laerm;57662;51.436;5.978;2024-02-04T00:58:55;40.73;37.00;49.71;;
67308;Laerm;57662;51.436;5.978;2024-02-04T00:59:10;42.30;38.86;47.15;;
67308;Laerm;57662;51.436;5.978;2024-02-04T00:59:22;42.11;37.57;44.73;;
67308;Laerm;57662;51.436;5.978;2024-02-04T00:59:33;42.00;38.03;47.41;;
67308;Laerm;57662;51.436;5.978;2024-02-04T00:59:44;42.27;38.80;46.10;;
67308;Laerm;57662;51.436;5.978;2024-02-04T00:59:56;42.22;38.78;51.94;;
67308;Laerm;57662;51.436;5.978;2024-02-04T01:00:07;42.00;39.13;43.57;;
67308;Laerm;57662;51.436;5.978;2024-02-04T01:00:19;42.24;37.94;45.69;;
67308;Laerm;57662;51.436;5.978;2024-02-04T01:00:35;42.59;37.62;53.42;;
67308;Laerm;57662;51.436;5.978;2024-02-04T01:00:46;39.01;37.16;50.44;;
67308;Laerm;57662;51.436;5.978;2024-02-04T01:00:58;38.68;36.15;43.35;;
67308;Laerm;57662;51.436;5.978;2024-02-04T01:01:10;39.26;36.72;48.25;;
67308;Laerm;57662;51.436;5.978;2024-02-04T01:01:20;42.58;39.20;49.44;;
67308;Laerm;57662;51.436;5.978;2024-02-04T01:01:38;42.91;37.90;50.18;;
67308;Laerm;57662;51.436;5.978;2024-02-04T01:01:49;42.87;38.83;50.86;;
67308;Laerm;57662;51.436;5.978;2024-02-04T01:02:00;41.89;38.67;43.41;;
67308;Laerm;57662;51.436;5.978;2024-02-04T01:02:11;41.92;37.66;44.29;;
67308;Laerm;57662;51.436;5.978;2024-02-04T01:02:24;41.96;38.08;44.05;;
67308;Laerm;57662;51.436;5.978;2024-02-04T01:02:34;41.94;38.94;43.21;;
67308;Laerm;57662;51.436;5.978;2024-02-04T01:02:45;40.88;37.15;49.90;;
67308;Laerm;57662;51.436;5.978;2024-02-04T01:02:55;39.22;37.38;45.83;;
67308;Laerm;57662;51.436;5.978;2024-02-04T01:03:06;38.73;37.08;42.92;;
67308;Laerm;57662;51.436;5.978;2024-02-04T01:03:17;39.72;37.37;47.59;;
67308;Laerm;57662;51.436;5.978;2024-02-04T01:03:30;42.03;37.87;43.51;;
67308;Laerm;57662;51.436;5.978;2024-02-04T01:03:40;41.97;37.72;44.52;;
67308;Laerm;57662;51.436;5.978;2024-02-04T01:03:51;42.93;40.55;50.48;;
67308;Laerm;57662;51.436;5.978;2024-02-04T01:04:02;42.10;37.75;44.00;;
67308;Laerm;57662;51.436;5.978;2024-02-04T01:04:15;42.03;37.94;44.36;;
67308;Laerm;57662;51.436;5.978;2024-02-04T01:04:25;42.04;37.62;48.00;;
67308;Laerm;57662;51.436;5.978;2024-02-04T01:04:37;41.45;37.29;44.80;;
67308;Laerm;57662;51.436;5.978;2024-02-04T01:04:49;39.95;37.27;43.71;;
67308;Laerm;57662;51.436;5.978;2024-02-04T01:05:01;39.38;37.28;53.12;;
67308;Laerm;57662;51.436;5.978;2024-02-04T01:05:12;38.66;37.16;41.96;;
67308;Laerm;57662;51.436;5.978;2024-02-04T01:05:26;38.89;36.81;45.30;;
67308;Laerm;57662;51.436;5.978;2024-02-04T01:05:37;41.77;37.20;43.64;;
67308;Laerm;57662;51.436;5.978;2024-02-04T01:05:49;41.98;37.80;44.30;;
67308;Laerm;57662;51.436;5.978;2024-02-04T01:06:00;42.31;38.38;43.86;;
67308;Laerm;57662;51.436;5.978;2024-02-04T01:06:11;42.30;38.48;44.64;;
67308;Laerm;57662;51.436;5.978;2024-02-04T01:06:22;42.92;40.00;48.73;;
67308;Laerm;57662;51.436;5.978;2024-02-04T01:06:33;42.43;39.32;45.52;;
67308;Laerm;57662;51.436;5.978;2024-02-04T01:06:44;41.78;37.96;43.25;;
67308;Laerm;57662;51.436;5.978;2024-02-04T01:06:55;41.82;38.26;43.71;;
67308;Laerm;57662;51.436;5.978;2024-02-04T01:07:06;40.14;37.12;43.30;;
67308;Laerm;57662;51.436;5.978;2024-02-04T01:07:17;39.87;37.14;49.52;;
67308;Laerm;57662;51.436;5.978;2024-02-04T01:07:28;38.70;36.82;45.09;;
67308;Laerm;57662;51.436;5.978;2024-02-04T01:07:39;38.82;37.21;45.72;;
67308;Laerm;57662;51.436;5.978;2024-02-04T01:07:50;40.31;36.96;42.98;;
67308;Laerm;57662;51.436;5.978;2024-02-04T01:08:01;42.08;38.21;43.38;;
67308;Laerm;57662;51.436;5.978;2024-02-04T01:08:12;41.70;37.47;45.15;;
67308;Laerm;57662;51.436;5.978;2024-02-04T01:08:24;42.02;38.06;44.63;;
67308;Laerm;57662;51.436;5.978;2024-02-04T01:08:35;42.20;37.90;48.27;;
67308;Laerm;57662;51.436;5.978;2024-02-04T01:08:49;41.63;37.66;44.32;;
67308;Laerm;57662;51.436;5.978;2024-02-04T01:09:01;42.42;37.75;51.71;;
67308;Laerm;57662;51.436;5.978;2024-02-04T01:09:12;41.78;37.48;50.88;;
67308;Laerm;57662;51.436;5.978;2024-02-04T01:09:24;38.92;37.14;43.62;;
67308;Laerm;57662;51.436;5.978;2024-02-04T01:09:34;38.38;37.09;41.09;;
67308;Laerm;57662;51.436;5.978;2024-02-04T01:09:45;38.69;37.39;42.03;;
67308;Laerm;57662;51.436;5.978;2024-02-04T01:09:56;42.17;38.23;44.70;;
67308;Laerm;57662;51.436;5.978;2024-02-04T01:10:07;38.79;37.08;42.80;;
67308;Laerm;57662;51.436;5.978;2024-02-04T01:10:18;38.49;37.17;40.64;;
67308;Laerm;57662;51.436;5.978;2024-02-04T01:10:29;39.53;37.35;48.57;;
67308;Laerm;57662;51.436;5.978;2024-02-04T01:10:40;38.60;36.79;43.27;;
67308;Laerm;57662;51.436;5.978;2024-02-04T01:10:51;39.20;37.17;48.67;;
67308;Laerm;57662;51.436;5.978;2024-02-04T01:11:02;39.46;37.08;44.67;;
67308;Laerm;57662;51.436;5.978;2024-02-04T01:11:13;42.46;38.47;44.50;;
67308;Laerm;57662;51.436;5.978;2024-02-04T01:11:27;41.34;37.04;43.70;;
67308;Laerm;57662;51.436;5.978;2024-02-04T01:11:39;38.81;37.31;44.94;;
67308;Laerm;57662;51.436;5.978;2024-02-04T01:11:50;38.30;37.04;39.82;;
67308;Laerm;57662;51.436;5.978;2024-02-04T01:12:04;38.41;36.73;40.41;;
67308;Laerm;57662;51.436;5.978;2024-02-04T01:12:15;38.23;36.31;39.78;;
67308;Laerm;57662;51.436;5.978;2024-02-04T01:12:26;38.49;36.88;41.39;;
67308;Laerm;57662;51.436;5.978;2024-02-04T01:12:37;38.28;37.02;40.12;;
67308;Laerm;57662;51.436;5.978;2024-02-04T01:12:49;38.58;37.38;40.76;;
67308;Laerm;57662;51.436;5.978;2024-02-04T01:12:59;38.71;37.38;40.92;;
67308;Laerm;57662;51.436;5.978;2024-02-04T01:13:11;38.75;37.04;41.65;;
67308;Laerm;57662;51.436;5.978;2024-02-04T01:13:21;38.95;37.55;41.75;;
67308;Laerm;57662;51.436;5.978;2024-02-04T01:13:33;39.41;37.48;41.79;;
67308;Laerm;57662;51.436;5.978;2024-02-04T01:13:47;39.07;37.43;42.08;;
67308;Laerm;57662;51.436;5.978;2024-02-04T01:13:58;39.26;37.31;47.40;;
67308;Laerm;57662;51.436;5.978;2024-02-04T01:14:09;40.46;37.88;48.78;;
67308;Laerm;57662;51.436;5.978;2024-02-04T01:14:20;40.45;37.59;48.09;;
67308;Laerm;57662;51.436;5.978;2024-02-04T01:14:31;39.33;37.50;45.20;;
67308;Laerm;57662;51.436;5.978;2024-02-04T01:14:42;39.03;37.78;41.92;;
67308;Laerm;57662;51.436;5.978;2024-02-04T01:14:53;39.75;37.07;46.08;;
67308;Laerm;57662;51.436;5.978;2024-02-04T01:15:03;42.72;38.16;47.45;;
67308;Laerm;57662;51.436;5.978;2024-02-04T01:15:17;42.68;38.08;49.78;;
67308;Laerm;57662;51.436;5.978;2024-02-04T01:15:29;42.57;38.16;44.31;;
67308;Laerm;57662;51.436;5.978;2024-02-04T01:15:40;42.14;37.43;43.71;;
67308;Laerm;57662;51.436;5.978;2024-02-04T01:15:51;42.24;37.65;43.98;;
67308;Laerm;57662;51.436;5.978;2024-02-04T01:16:02;42.30;38.24;43.93;;
67308;Laerm;57662;51.436;5.978;2024-02-04T01:16:13;42.14;37.65;44.82;;